Overview Statistics Trail Chart Weather Telemetry Raw packets
 

This is the latest recevied weather packets stored in our database for station/object KQ4KX. If no packets are shown the sender has not sent any weather packets the latest 10 day(s).

<< 75 76 77 78 79 80 81 >>
Time Temp. Humidity Pressure Rain* Wind** Luminosity Snow
1788043514 23.89° C 97% 1017.6 hPa 2.03 mm - - -
1788043345 23.89° C 97% 1017.6 hPa 2.03 mm - - -
1788043266 23.89° C 97% 1017.4 hPa 2.03 mm - - -
1788043044 23.89° C 97% 1017.4 hPa 2.03 mm - - -
1788042744 23.89° C 97% 1017.6 hPa 1.78 mm - - -
1788042660 24.44° C 96% 1017.6 hPa 1.52 mm - - -
1788042444 24.44° C 96% 1017.6 hPa 1.52 mm - - -
1788041814 24.44° C 96% 1017.8 hPa 0.76 mm - - -
1788041766 24.44° C 95% 1017.9 hPa 1.27 mm - - -
1788041484 24.44° C 95% 1017.9 hPa 1.27 mm - - -
1788041156 24.44° C 96% 1018 hPa 2.29 mm - - -
1788040524 24.44° C 96% 1017.8 hPa 4.57 mm - - -
1788040224 24.44° C 96% 1017.7 hPa 5.08 mm - - -
1788039843 24.44° C 95% 1017.7 hPa 4.83 mm - - -
1788039672 24.44° C 95% 1017.7 hPa 4.83 mm - - -
1788039073 25° C 96% 1017.7 hPa 4.83 mm - - -
1788038773 25° C 96% 1018 hPa 4.83 mm - - -
1788038172 25° C 96% 1018.2 hPa 4.57 mm - - -
1788037872 25° C 96% 1018.1 hPa 4.06 mm - - -
1788037543 25° C 94% 1017.9 hPa 2.79 mm - - -
1788036912 26.11° C 90% 1017.7 hPa 0.51 mm - - -
1788036725 27.78° C 81% 1017.4 hPa 0 mm - - -
1788036583 27.78° C 81% 1017.4 hPa 0 mm - - -
1788035844 29.44° C 77% 1016.8 hPa 0 mm - - -
1788035683 29.44° C 77% 1016.8 hPa 0 mm - - -

* Rain latest hour (hover to see other rain measurements)
** Current wind speed in m/s (hover to see current wind gust speed)